createdAt,value
2019-04-19T00:00:56.036Z,1021.45
2019-04-19T00:01:57.174Z,1021.45
2019-04-19T00:02:51.944Z,1021.37
2019-04-19T00:03:51.037Z,1021.42
2019-04-19T00:04:53.625Z,1021.43
2019-04-19T00:05:51.208Z,1021.40
2019-04-19T00:06:58.178Z,1021.40
2019-04-19T00:08:00.091Z,1021.35
2019-04-19T00:09:12.188Z,1021.37
2019-04-19T00:09:57.368Z,1021.40
2019-04-19T00:10:55.529Z,1021.41
2019-04-19T00:12:04.476Z,1021.35
2019-04-19T00:12:55.965Z,1021.42
2019-04-19T00:13:49.799Z,1021.34
2019-04-19T00:14:50.648Z,1021.40
2019-04-19T00:15:49.828Z,1021.38
2019-04-19T00:16:50.949Z,1021.39
2019-04-19T00:17:52.544Z,1021.36
2019-04-19T00:19:14.322Z,1021.37
2019-04-19T00:20:16.787Z,1021.39
2019-04-19T00:21:06.858Z,1021.34
2019-04-19T00:22:24.042Z,1021.34
2019-04-19T00:23:02.059Z,1021.37
2019-04-19T00:23:52.137Z,1021.34
2019-04-19T00:24:50.084Z,1021.34
2019-04-19T00:25:49.733Z,1021.36
2019-04-19T00:26:50.749Z,1021.40
2019-04-19T00:27:54.079Z,1021.38
2019-04-19T00:28:54.924Z,1021.42
2019-04-19T00:29:57.436Z,1021.41
2019-04-19T00:30:59.216Z,1021.38
2019-04-19T00:32:08.061Z,1021.43
2019-04-19T00:33:04.647Z,1021.43
2019-04-19T00:33:53.891Z,1021.39
2019-04-19T00:34:50.497Z,1021.42
2019-04-19T00:35:49.729Z,1021.40
2019-04-19T00:36:50.860Z,1021.43
2019-04-19T00:37:52.341Z,1021.37
2019-04-19T00:39:06.003Z,1021.37
2019-04-19T00:40:07.597Z,1021.36
2019-04-19T00:41:06.946Z,1021.44
2019-04-19T00:42:10.601Z,1021.36
2019-04-19T00:43:03.698Z,1021.40
2019-04-19T00:44:05.556Z,1021.43
2019-04-19T00:45:09.139Z,1021.42
2019-04-19T00:46:09.219Z,1021.41
2019-04-19T00:47:07.987Z,1021.36
2019-04-19T00:48:04.158Z,1021.39
2019-04-19T00:49:02.900Z,1021.36
2019-04-19T00:50:02.882Z,1021.36
2019-04-19T00:51:07.544Z,1021.37
2019-04-19T00:52:05.560Z,1021.39
2019-04-19T00:53:04.002Z,1021.37
2019-04-19T00:54:00.123Z,1021.37
2019-04-19T00:55:02.166Z,1021.39
2019-04-19T00:56:00.757Z,1021.35
2019-04-19T00:56:57.045Z,1021.37
2019-04-19T00:57:54.795Z,1021.37
2019-04-19T00:58:56.591Z,1021.35
2019-04-19T00:59:51.906Z,1021.40
2019-04-19T01:00:51.095Z,1021.34
2019-04-19T01:01:56.753Z,1021.39
2019-04-19T01:02:54.475Z,1021.34
2019-04-19T01:03:51.952Z,1021.39
2019-04-19T01:05:00.461Z,1021.44
2019-04-19T01:05:58.077Z,1021.40
2019-04-19T01:06:54.862Z,1021.40
2019-04-19T01:07:49.576Z,1021.41
2019-04-19T01:09:00.310Z,1021.46
2019-04-19T01:10:06.048Z,1021.47
2019-04-19T01:11:10.800Z,1021.40
2019-04-19T01:12:03.118Z,1021.50
2019-04-19T01:13:05.467Z,1021.46
2019-04-19T01:14:00.953Z,1021.44
2019-04-19T01:15:04.680Z,1021.45
2019-04-19T01:16:04.139Z,1021.44
2019-04-19T01:17:06.407Z,1021.47
2019-04-19T01:18:08.107Z,1021.48
2019-04-19T01:18:58.043Z,1021.47
2019-04-19T01:19:55.842Z,1021.49
2019-04-19T01:20:50.146Z,1021.46
2019-04-19T01:21:49.442Z,1021.45
2019-04-19T01:22:58.587Z,1021.46
2019-04-19T01:23:54.250Z,1021.45
2019-04-19T01:24:50.937Z,1021.51
2019-04-19T01:25:54.655Z,1021.48
2019-04-19T01:26:53.964Z,1021.48
2019-04-19T01:27:49.413Z,1021.51
2019-04-19T01:28:53.567Z,1021.53
2019-04-19T01:29:54.256Z,1021.54
2019-04-19T01:30:50.743Z,1021.59
2019-04-19T01:31:58.108Z,1021.53
2019-04-19T01:32:54.230Z,1021.56
2019-04-19T01:33:50.708Z,1021.55
2019-04-19T01:34:57.921Z,1021.62
2019-04-19T01:35:53.950Z,1021.59
2019-04-19T01:36:51.225Z,1021.60
2019-04-19T01:37:53.875Z,1021.56
2019-04-19T01:38:58.082Z,1021.60
2019-04-19T01:40:05.811Z,1021.65
2019-04-19T01:41:09.921Z,1021.62
2019-04-19T01:42:00.984Z,1021.62
2019-04-19T01:43:01.904Z,1021.62
2019-04-19T01:44:06.636Z,1021.59
2019-04-19T01:45:08.744Z,1021.62
2019-04-19T01:46:03.856Z,1021.64
2019-04-19T01:47:06.564Z,1021.61
2019-04-19T01:48:04.125Z,1021.61
2019-04-19T01:49:03.141Z,1021.65
2019-04-19T01:50:03.301Z,1021.58
2019-04-19T01:51:04.870Z,1021.59
2019-04-19T01:52:07.769Z,1021.60
2019-04-19T01:53:09.634Z,1021.60
2019-04-19T01:54:08.939Z,1021.58
2019-04-19T01:55:01.848Z,1021.57
2019-04-19T01:55:54.270Z,1021.60
2019-04-19T01:56:53.638Z,1021.59
2019-04-19T01:57:49.362Z,1021.60
2019-04-19T01:58:55.177Z,1021.59
2019-04-19T01:59:54.239Z,1021.55
2019-04-19T02:00:52.418Z,1021.59
2019-04-19T02:01:50.622Z,1021.51
2019-04-19T02:02:54.786Z,1021.56
2019-04-19T02:03:52.116Z,1021.59
2019-04-19T02:04:52.077Z,1021.57
2019-04-19T02:05:54.041Z,1021.59
2019-04-19T02:06:51.100Z,1021.63
2019-04-19T02:07:56.556Z,1021.60
2019-04-19T02:08:53.873Z,1021.61
2019-04-19T02:10:02.670Z,1021.62
2019-04-19T02:10:59.921Z,1021.64
2019-04-19T02:11:57.965Z,1021.69
2019-04-19T02:13:00.357Z,1021.67
2019-04-19T02:13:58.055Z,1021.68
2019-04-19T02:14:57.385Z,1021.68
2019-04-19T02:15:52.581Z,1021.68
2019-04-19T02:16:52.609Z,1021.72
2019-04-19T02:17:51.354Z,1021.68
2019-04-19T02:18:49.363Z,1021.72
2019-04-19T02:19:56.640Z,1021.69
2019-04-19T02:20:50.503Z,1021.73
2019-04-19T02:21:50.739Z,1021.67
2019-04-19T02:22:55.142Z,1021.69
2019-04-19T02:23:53.944Z,1021.66
2019-04-19T02:24:52.655Z,1021.70
2019-04-19T02:25:51.637Z,1021.68
2019-04-19T02:26:56.465Z,1021.73
2019-04-19T02:27:51.422Z,1021.74
2019-04-19T02:28:49.266Z,1021.77
2019-04-19T02:29:56.731Z,1021.69
2019-04-19T02:31:06.211Z,1021.73
2019-04-19T02:32:15.466Z,1021.68
2019-04-19T02:33:15.354Z,1021.74
2019-04-19T02:34:26.785Z,1021.73
2019-04-19T02:35:11.334Z,1021.73
2019-04-19T02:36:20.669Z,1021.76
2019-04-19T02:37:16.395Z,1021.73
2019-04-19T02:38:15.208Z,1021.78
2019-04-19T02:41:17.952Z,1021.78
2019-04-19T02:42:27.451Z,1021.75
2019-04-19T02:43:17.112Z,1021.82
2019-04-19T02:44:12.008Z,1021.80
2019-04-19T02:45:17.453Z,1021.85
2019-04-19T02:47:21.758Z,1021.84
2019-04-19T02:48:23.798Z,1021.82
2019-04-19T02:49:24.314Z,1021.85
2019-04-19T02:52:27.387Z,1021.89
2019-04-19T02:53:16.682Z,1021.85
2019-04-19T02:54:20.872Z,1021.84
2019-04-19T02:56:31.544Z,1021.86
2019-04-19T02:57:21.065Z,1021.90
2019-04-19T02:58:13.060Z,1021.83
2019-04-19T02:59:21.296Z,1021.95
2019-04-19T03:01:18.766Z,1021.90
2019-04-19T03:02:25.095Z,1021.86
2019-04-19T03:03:13.314Z,1021.94
2019-04-19T03:04:24.558Z,1021.91
2019-04-19T03:05:30.146Z,1021.93
2019-04-19T03:06:03.931Z,1021.96
2019-04-19T03:06:55.577Z,1021.98
2019-04-19T03:07:50.341Z,1021.94
2019-04-19T03:08:48.805Z,1021.93
2019-04-19T03:09:50.391Z,1021.95
2019-04-19T03:11:02.046Z,1022.00
2019-04-19T03:12:03.783Z,1021.91
2019-04-19T03:13:03.454Z,1021.93
2019-04-19T03:14:03.294Z,1021.99
2019-04-19T03:15:02.724Z,1021.98
2019-04-19T03:16:08.922Z,1021.99
2019-04-19T03:17:04.938Z,1021.96
2019-04-19T03:18:18.465Z,1022.01
2019-04-19T03:19:00.906Z,1021.97
2019-04-19T03:20:05.478Z,1021.98
2019-04-19T03:21:00.515Z,1022.00
2019-04-19T03:22:01.133Z,1021.98
2019-04-19T03:22:59.469Z,1021.96
2019-04-19T03:24:05.328Z,1021.96
2019-04-19T03:25:06.233Z,1021.99
2019-04-19T03:25:59.199Z,1021.92
2019-04-19T03:27:02.380Z,1021.96
2019-04-19T03:27:59.783Z,1021.97
2019-04-19T03:28:54.142Z,1021.98
2019-04-19T03:29:55.697Z,1021.99
2019-04-19T03:31:14.107Z,1021.97
2019-04-19T03:32:24.104Z,1022.04
2019-04-19T03:33:19.141Z,1021.99
2019-04-19T03:34:13.409Z,1022.02
2019-04-19T03:35:03.908Z,1021.98
2019-04-19T03:36:05.822Z,1022.03
2019-04-19T03:37:00.060Z,1022.02
2019-04-19T03:38:08.842Z,1022.03
2019-04-19T03:39:13.345Z,1022.03
2019-04-19T03:40:21.713Z,1022.04
2019-04-19T03:41:09.186Z,1022.02
2019-04-19T03:42:18.098Z,1022.13
2019-04-19T03:43:11.414Z,1022.10
2019-04-19T03:44:03.497Z,1022.06
2019-04-19T03:45:08.600Z,1022.06
2019-04-19T03:46:08.819Z,1022.08
2019-04-19T03:47:10.091Z,1022.08
2019-04-19T03:48:08.832Z,1022.06
2019-04-19T03:49:14.653Z,1022.08
2019-04-19T03:50:04.587Z,1022.06
2019-04-19T03:51:18.183Z,1022.12
2019-04-19T03:52:15.551Z,1022.12
2019-04-19T03:54:08.735Z,1022.11
2019-04-19T03:56:12.244Z,1022.15
2019-04-19T03:57:06.122Z,1022.14
2019-04-19T03:57:58.260Z,1022.12
2019-04-19T03:58:51.302Z,1022.19
2019-04-19T03:59:48.452Z,1022.20
2019-04-19T04:00:50.056Z,1022.21
2019-04-19T04:01:53.261Z,1022.20
2019-04-19T04:02:50.038Z,1022.20
2019-04-19T04:03:51.062Z,1022.23
2019-04-19T04:04:53.788Z,1022.23
2019-04-19T04:05:51.726Z,1022.27
2019-04-19T04:06:49.013Z,1022.25
2019-04-19T04:07:59.280Z,1022.26
2019-04-19T04:08:55.513Z,1022.28
2019-04-19T04:09:52.586Z,1022.28
2019-04-19T04:10:49.175Z,1022.29
2019-04-19T04:11:56.496Z,1022.34
2019-04-19T04:12:57.439Z,1022.26
2019-04-19T04:14:03.382Z,1022.35
2019-04-19T04:15:03.876Z,1022.30
2019-04-19T04:16:03.548Z,1022.34
2019-04-19T04:16:51.908Z,1022.32
2019-04-19T04:17:48.316Z,1022.35
2019-04-19T04:18:49.311Z,1022.31
2019-04-19T04:19:48.411Z,1022.37
2019-04-19T04:20:52.659Z,1022.34
2019-04-19T04:21:50.806Z,1022.35
2019-04-19T04:22:49.711Z,1022.41
2019-04-19T04:24:00.060Z,1022.38
2019-04-19T04:24:58.371Z,1022.35
2019-04-19T04:25:58.642Z,1022.43
2019-04-19T04:26:58.132Z,1022.37
2019-04-19T04:27:59.843Z,1022.38
2019-04-19T04:29:02.981Z,1022.45
2019-04-19T04:30:00.226Z,1022.43
2019-04-19T04:30:53.905Z,1022.41
2019-04-19T04:32:01.263Z,1022.44
2019-04-19T04:33:02.924Z,1022.44
2019-04-19T04:33:56.679Z,1022.46
2019-04-19T04:35:07.360Z,1022.44
2019-04-19T04:36:04.067Z,1022.49
2019-04-19T04:37:01.794Z,1022.41
2019-04-19T04:37:58.543Z,1022.46
2019-04-19T04:38:49.550Z,1022.40
2019-04-19T04:39:49.327Z,1022.46
2019-04-19T04:40:48.606Z,1022.43
2019-04-19T04:41:49.134Z,1022.44
2019-04-19T04:43:03.927Z,1022.49
2019-04-19T04:44:07.863Z,1022.50
2019-04-19T04:45:17.453Z,1022.55
2019-04-19T04:46:16.647Z,1022.53
2019-04-19T04:47:08.759Z,1022.51
2019-04-19T04:48:04.310Z,1022.54
2019-04-19T04:49:04.477Z,1022.53
2019-04-19T04:50:11.279Z,1022.56
2019-04-19T04:51:10.752Z,1022.53
2019-04-19T04:52:00.156Z,1022.61
2019-04-19T04:52:49.398Z,1022.54
2019-04-19T04:53:49.136Z,1022.61
2019-04-19T04:54:48.308Z,1022.57
2019-04-19T04:55:53.549Z,1022.63
2019-04-19T04:56:58.430Z,1022.63
2019-04-19T04:57:54.382Z,1022.67
2019-04-19T04:58:49.587Z,1022.67
2019-04-19T04:59:50.741Z,1022.74
2019-04-19T05:00:55.018Z,1022.70
2019-04-19T05:01:58.010Z,1022.69
2019-04-19T05:03:05.080Z,1022.77
2019-04-19T05:03:58.143Z,1022.81
2019-04-19T05:05:07.368Z,1022.92
2019-04-19T05:06:09.379Z,1022.95
2019-04-19T05:07:05.489Z,1022.96
2019-04-19T05:08:11.325Z,1023.06
2019-04-19T05:09:06.555Z,1023.13
2019-04-19T05:10:06.094Z,1023.11
2019-04-19T05:11:07.702Z,1023.12
2019-04-19T05:12:15.266Z,1023.19
2019-04-19T05:13:27.386Z,1023.18
2019-04-19T05:14:07.042Z,1023.23
2019-04-19T05:14:59.343Z,1023.26
2019-04-19T05:16:06.923Z,1023.26
2019-04-19T05:17:22.760Z,1023.36
2019-04-19T05:18:12.133Z,1023.37
2019-04-19T05:19:03.740Z,1023.37
2019-04-19T05:20:12.198Z,1023.38
2019-04-19T05:21:02.828Z,1023.45
2019-04-19T05:22:08.663Z,1023.45
2019-04-19T05:23:05.406Z,1023.49
2019-04-19T05:24:08.800Z,1023.53
2019-04-19T05:25:12.521Z,1023.59
2019-04-19T05:26:10.713Z,1023.58
2019-04-19T05:27:10.064Z,1023.60
2019-04-19T05:28:08.385Z,1023.66
2019-04-19T05:29:03.397Z,1023.71
2019-04-19T05:29:51.620Z,1023.73
2019-04-19T05:30:56.709Z,1023.76
2019-04-19T05:31:52.742Z,1023.73
2019-04-19T05:32:57.848Z,1023.81
2019-04-19T05:34:11.179Z,1023.80
2019-04-19T05:35:05.751Z,1023.88
2019-04-19T05:36:11.099Z,1023.88
2019-04-19T05:37:05.517Z,1023.92
2019-04-19T05:38:03.552Z,1023.91
2019-04-19T05:39:09.604Z,1023.95
2019-04-19T05:41:00.681Z,1024.02
2019-04-19T05:42:03.730Z,1024.05
2019-04-19T05:43:02.198Z,1024.04
2019-04-19T05:44:14.297Z,1024.07
2019-04-19T05:45:20.379Z,1024.07
2019-04-19T05:46:21.615Z,1024.07
2019-04-19T05:47:06.233Z,1024.11
2019-04-19T05:47:56.644Z,1024.13
2019-04-19T05:48:58.119Z,1024.14
2019-04-19T05:50:07.555Z,1024.22
2019-04-19T05:51:14.016Z,1024.21
2019-04-19T05:52:07.803Z,1024.21
2019-04-19T05:53:06.929Z,1024.24
2019-04-19T05:53:50.213Z,1024.23
2019-04-19T05:54:47.794Z,1024.26
2019-04-19T05:55:47.795Z,1024.29
2019-04-19T05:56:53.183Z,1024.27
2019-04-19T05:58:02.035Z,1024.35
2019-04-19T05:58:57.906Z,1024.33
2019-04-19T05:59:56.903Z,1024.39
2019-04-19T06:01:02.262Z,1024.46
2019-04-19T06:02:02.809Z,1024.42
2019-04-19T06:03:01.261Z,1024.39
2019-04-19T06:04:07.623Z,1024.49
2019-04-19T06:05:11.425Z,1024.44
2019-04-19T06:06:16.045Z,1024.48
2019-04-19T06:07:08.318Z,1024.52
2019-04-19T06:07:59.734Z,1024.52
2019-04-19T06:08:47.813Z,1024.55
2019-04-19T06:09:47.816Z,1024.51
2019-04-19T06:10:53.651Z,1024.56
2019-04-19T06:11:48.436Z,1024.59
2019-04-19T06:12:49.587Z,1024.66
2019-04-19T06:13:57.483Z,1024.64
2019-04-19T06:15:08.121Z,1024.64
2019-04-19T06:16:07.317Z,1024.66
2019-04-19T06:17:01.519Z,1024.66
2019-04-19T06:18:06.762Z,1024.68
2019-04-19T06:19:01.539Z,1024.69
2019-04-19T06:20:08.374Z,1024.74
2019-04-19T06:21:10.439Z,1024.70
2019-04-19T06:22:00.789Z,1024.72
2019-04-19T06:23:07.441Z,1024.74
2019-04-19T06:24:15.158Z,1024.78
2019-04-19T06:25:00.799Z,1024.78
2019-04-19T06:26:27.302Z,1024.82
2019-04-19T06:27:13.379Z,1024.81
2019-04-19T06:28:22.700Z,1024.84
2019-04-19T06:29:25.748Z,1024.90
2019-04-19T06:30:10.460Z,1024.86
2019-04-19T06:31:12.763Z,1024.82
2019-04-19T06:32:11.528Z,1024.86
2019-04-19T06:33:07.843Z,1024.90
2019-04-19T06:34:08.842Z,1024.90
2019-04-19T06:35:02.528Z,1024.88
2019-04-19T06:35:53.765Z,1024.92
2019-04-19T06:36:58.571Z,1024.95
2019-04-19T06:37:48.194Z,1024.96
2019-04-19T06:38:48.619Z,1025.02
2019-04-19T06:39:52.305Z,1024.98
2019-04-19T06:40:54.468Z,1025.02
2019-04-19T06:41:55.816Z,1025.07
2019-04-19T06:42:58.066Z,1025.06
2019-04-19T06:43:59.952Z,1025.10
2019-04-19T06:45:10.624Z,1025.13
2019-04-19T06:46:02.624Z,1025.17
2019-04-19T06:47:00.904Z,1025.17
2019-04-19T06:47:56.997Z,1025.17
2019-04-19T06:48:54.179Z,1025.19
2019-04-19T06:49:50.978Z,1025.19
2019-04-19T06:50:52.965Z,1025.17
2019-04-19T06:51:57.679Z,1025.15
2019-04-19T06:52:48.958Z,1025.17
2019-04-19T06:53:53.934Z,1025.22
2019-04-19T06:54:48.476Z,1025.22
2019-04-19T06:55:52.614Z,1025.20
2019-04-19T06:56:57.090Z,1025.21
2019-04-19T06:57:58.991Z,1025.27
2019-04-19T06:58:59.757Z,1025.26
2019-04-19T07:00:03.326Z,1025.25
2019-04-19T07:01:02.310Z,1025.26
2019-04-19T07:01:52.732Z,1025.27
2019-04-19T07:02:48.065Z,1025.26
2019-04-19T07:03:49.386Z,1025.24
2019-04-19T07:04:56.255Z,1025.26
2019-04-19T07:06:06.382Z,1025.27
2019-04-19T07:07:12.971Z,1025.25
2019-04-19T07:08:25.991Z,1025.22
2019-04-19T07:09:13.610Z,1025.23
2019-04-19T07:10:18.071Z,1025.28
2019-04-19T07:11:11.608Z,1025.28
2019-04-19T07:12:09.096Z,1025.31
2019-04-19T07:13:04.728Z,1025.29
2019-04-19T07:13:57.675Z,1025.29
2019-04-19T07:15:06.887Z,1025.28
2019-04-19T07:16:15.893Z,1025.29
2019-04-19T07:17:07.211Z,1025.35
2019-04-19T07:18:05.135Z,1025.30
2019-04-19T07:19:08.124Z,1025.34
2019-04-19T07:20:06.505Z,1025.39
2019-04-19T07:21:07.887Z,1025.41
2019-04-19T07:22:04.820Z,1025.42
2019-04-19T07:23:04.336Z,1025.40
2019-04-19T07:24:11.787Z,1025.36
2019-04-19T07:25:11.846Z,1025.37
2019-04-19T07:26:10.048Z,1025.39
2019-04-19T07:27:09.981Z,1025.45
2019-04-19T07:27:59.543Z,1025.46
2019-04-19T07:28:49.370Z,1025.44
2019-04-19T07:29:49.914Z,1025.43
2019-04-19T07:30:53.161Z,1025.46
2019-04-19T07:31:49.119Z,1025.48
2019-04-19T07:32:55.715Z,1025.50
2019-04-19T07:33:57.153Z,1025.49
2019-04-19T07:35:03.390Z,1025.51
2019-04-19T07:36:08.858Z,1025.52
2019-04-19T07:37:09.160Z,1025.52
2019-04-19T07:38:17.261Z,1025.54
2019-04-19T07:39:09.683Z,1025.50
2019-04-19T07:40:14.274Z,1025.55
2019-04-19T07:41:05.933Z,1025.61
2019-04-19T07:42:13.692Z,1025.58
2019-04-19T07:43:06.040Z,1025.58
2019-04-19T07:43:59.348Z,1025.57
2019-04-19T07:44:55.820Z,1025.60
2019-04-19T07:46:12.286Z,1025.63
2019-04-19T07:47:01.102Z,1025.63
2019-04-19T07:47:57.719Z,1025.63
2019-04-19T07:48:49.373Z,1025.64
2019-04-19T07:50:00.575Z,1025.65
2019-04-19T07:50:56.931Z,1025.66
2019-04-19T07:51:58.240Z,1025.67
2019-04-19T07:52:56.454Z,1025.69
2019-04-19T07:53:51.205Z,1025.72
2019-04-19T07:54:55.251Z,1025.64
2019-04-19T07:56:00.762Z,1025.67
2019-04-19T07:57:01.532Z,1025.72
2019-04-19T07:58:24.189Z,1025.67
2019-04-19T07:59:14.628Z,1025.71
2019-04-19T08:01:15.065Z,1024.88
2019-04-19T08:04:38.552Z,1024.89
2019-04-19T08:05:18.627Z,1024.86
2019-04-19T08:13:19.693Z,1024.95
2019-04-19T08:15:22.335Z,1024.94
2019-04-19T08:16:47.400Z,1024.97
2019-04-19T08:28:03.095Z,1025.15
2019-04-19T08:28:56.309Z,1025.17
2019-04-19T08:29:56.135Z,1025.12
2019-04-19T08:30:55.296Z,1025.17
2019-04-19T08:31:49.058Z,1025.13
2019-04-19T08:32:49.336Z,1025.14
2019-04-19T08:33:48.991Z,1025.18
2019-04-19T08:34:55.741Z,1025.15
2019-04-19T08:35:52.789Z,1025.13
2019-04-19T08:36:52.343Z,1025.12
2019-04-19T08:37:50.589Z,1025.11
2019-04-19T08:39:08.586Z,1025.10
2019-04-19T08:40:04.611Z,1025.14
2019-04-19T08:41:02.056Z,1025.17
2019-04-19T08:42:12.957Z,1025.14
2019-04-19T08:43:09.399Z,1025.08
2019-04-19T08:44:05.061Z,1025.09
2019-04-19T08:44:56.197Z,1025.14
2019-04-19T08:45:49.166Z,1025.14
2019-04-19T08:46:49.195Z,1025.11
2019-04-19T08:48:00.136Z,1025.12
2019-04-19T08:48:54.452Z,1025.14
2019-04-19T08:49:51.196Z,1025.08
2019-04-19T08:50:52.854Z,1025.10
2019-04-19T08:51:50.535Z,1025.11
2019-04-19T08:52:56.717Z,1025.08
2019-04-19T08:54:08.322Z,1025.09
2019-04-19T08:55:11.311Z,1025.08
2019-04-19T08:56:10.001Z,1025.07
2019-04-19T08:56:57.386Z,1025.07
2019-04-19T08:57:57.643Z,1025.05
2019-04-19T08:59:09.604Z,1025.08
2019-04-19T09:00:12.505Z,1025.08
2019-04-19T09:01:13.863Z,1025.05
2019-04-19T09:02:10.818Z,1025.03
2019-04-19T09:03:03.892Z,1025.02
2019-04-19T09:04:09.154Z,1025.04
2019-04-19T09:05:08.997Z,1024.99
2019-04-19T09:06:48.334Z,1025.03
2019-04-19T09:08:12.257Z,1025.06
2019-04-19T09:09:02.352Z,1025.00
2019-04-19T09:10:26.303Z,1024.99
2019-04-19T09:11:05.556Z,1025.02
2019-04-19T09:12:08.241Z,1025.04
2019-04-19T09:13:19.678Z,1024.98
2019-04-19T09:14:11.098Z,1025.00
2019-04-19T09:15:06.481Z,1025.04
2019-04-19T09:16:07.641Z,1025.03
2019-04-19T09:17:12.902Z,1025.04
2019-04-19T09:18:25.051Z,1025.00
2019-04-19T09:19:18.436Z,1025.04
2019-04-19T09:21:05.194Z,1024.95
2019-04-19T09:22:07.903Z,1025.00
2019-04-19T09:23:04.855Z,1025.04
2019-04-19T09:23:57.399Z,1025.12
2019-04-19T09:24:57.180Z,1025.09
2019-04-19T09:26:04.597Z,1025.20
2019-04-19T09:27:06.306Z,1025.27
2019-04-19T09:28:15.063Z,1025.39
2019-04-19T09:29:18.008Z,1025.39
2019-04-19T09:30:11.570Z,1025.31
2019-04-19T09:31:04.359Z,1025.15
2019-04-19T09:32:00.258Z,1025.06
2019-04-19T09:32:50.440Z,1025.01
2019-04-19T09:34:00.428Z,1024.96
2019-04-19T09:34:59.749Z,1024.96
2019-04-19T09:35:58.891Z,1024.92
2019-04-19T09:37:02.212Z,1024.90
2019-04-19T09:38:02.605Z,1024.85
2019-04-19T09:39:03.005Z,1024.89
2019-04-19T09:39:59.791Z,1024.89
2019-04-19T09:40:56.582Z,1024.92
2019-04-19T09:41:57.590Z,1025.17
2019-04-19T09:42:57.511Z,1025.40
2019-04-19T09:44:01.693Z,1025.44
2019-04-19T09:44:56.315Z,1024.99
2019-04-19T09:45:51.128Z,1024.68
2019-04-19T09:46:50.826Z,1024.72
2019-04-19T09:47:50.374Z,1024.72
2019-04-19T09:49:05.088Z,1024.74
2019-04-19T09:50:04.048Z,1024.70
2019-04-19T09:52:03.265Z,1024.68
2019-04-19T09:53:20.709Z,1024.66
2019-04-19T09:54:13.440Z,1024.67
2019-04-19T09:55:16.347Z,1024.63
2019-04-19T09:56:11.917Z,1024.45
2019-04-19T09:57:05.970Z,1024.64
2019-04-19T09:58:12.788Z,1024.52
2019-04-19T09:59:02.740Z,1024.63
2019-04-19T09:59:58.069Z,1024.48
2019-04-19T10:00:53.736Z,1024.51
2019-04-19T10:01:55.583Z,1024.43
2019-04-19T10:02:56.439Z,1024.46
2019-04-19T10:03:55.777Z,1024.40
2019-04-19T10:04:50.671Z,1024.35
2019-04-19T10:05:51.003Z,1024.36
2019-04-19T10:06:51.117Z,1024.28
2019-04-19T10:07:50.718Z,1024.33
2019-04-19T10:08:51.860Z,1024.35
2019-04-19T10:09:55.436Z,1024.26
2019-04-19T10:10:51.680Z,1024.26
2019-04-19T10:11:50.938Z,1024.21
2019-04-19T10:12:51.800Z,1024.19
2019-04-19T10:13:50.744Z,1024.21
2019-04-19T10:14:51.469Z,1024.25
2019-04-19T10:15:50.773Z,1024.27
2019-04-19T10:16:50.781Z,1024.22
2019-04-19T10:17:50.802Z,1024.19
2019-04-19T10:18:55.957Z,1024.16
2019-04-19T10:19:50.946Z,1024.18
2019-04-19T10:20:51.111Z,1024.15
2019-04-19T10:21:51.959Z,1024.16
2019-04-19T10:22:50.975Z,1024.23
2019-04-19T10:23:51.955Z,1024.14
2019-04-19T10:24:53.679Z,1024.16
2019-04-19T10:25:55.170Z,1024.14
2019-04-19T10:26:50.935Z,1024.12
2019-04-19T10:27:51.911Z,1024.14
2019-04-19T10:28:50.961Z,1024.14
2019-04-19T10:29:51.336Z,1024.17
2019-04-19T10:30:51.002Z,1024.15
2019-04-19T10:31:53.432Z,1024.20
2019-04-19T10:32:53.278Z,1024.08
2019-04-19T10:33:55.428Z,1024.07
2019-04-19T10:34:52.395Z,1024.10
2019-04-19T10:35:51.766Z,1024.10
2019-04-19T10:36:52.712Z,1024.15
2019-04-19T10:37:51.455Z,1024.08
2019-04-19T10:38:53.430Z,1024.09
2019-04-19T10:39:51.930Z,1024.12
2019-04-19T10:40:51.457Z,1024.13
2019-04-19T10:41:52.190Z,1024.14
2019-04-19T10:42:51.436Z,1024.14
2019-04-19T10:44:01.859Z,1024.14
2019-04-19T10:44:52.067Z,1024.14
2019-04-19T10:45:52.124Z,1024.13
2019-04-19T10:46:51.229Z,1024.10
2019-04-19T10:47:51.818Z,1024.15
2019-04-19T10:49:01.364Z,1024.09
2019-04-19T10:49:57.712Z,1024.15
2019-04-19T10:50:53.535Z,1024.08
2019-04-19T10:51:52.259Z,1024.11
2019-04-19T10:52:52.496Z,1024.11
2019-04-19T10:53:52.575Z,1024.06
2019-04-19T10:54:51.668Z,1024.03
2019-04-19T10:55:52.012Z,1024.02
2019-04-19T10:56:52.367Z,1024.06
2019-04-19T10:57:51.436Z,1024.02
2019-04-19T10:58:52.466Z,1024.01
2019-04-19T10:59:52.365Z,1023.99
2019-04-19T11:00:51.489Z,1024.02
2019-04-19T11:01:52.165Z,1024.04
2019-04-19T11:02:52.442Z,1024.07
2019-04-19T11:03:52.792Z,1024.07
2019-04-19T11:04:51.516Z,1024.05
2019-04-19T11:05:52.610Z,1024.03
2019-04-19T11:06:51.545Z,1024.07
2019-04-19T11:07:51.674Z,1024.04
2019-04-19T11:08:51.578Z,1024.04
2019-04-19T11:09:51.599Z,1024.04
2019-04-19T11:10:51.748Z,1023.92
2019-04-19T11:11:51.910Z,1023.97
2019-04-19T11:12:52.476Z,1023.93
2019-04-19T11:13:52.020Z,1023.87
2019-04-19T11:14:52.378Z,1023.90
2019-04-19T11:15:52.146Z,1023.97
2019-04-19T11:16:51.699Z,1023.97
2019-04-19T11:17:51.848Z,1023.84
2019-04-19T11:18:51.723Z,1023.83
2019-04-19T11:20:04.677Z,1023.97
2019-04-19T11:20:54.006Z,1023.78
2019-04-19T11:21:51.893Z,1023.68
2019-04-19T11:22:51.789Z,1023.60
2019-04-19T11:23:51.802Z,1023.59
2019-04-19T11:24:52.068Z,1023.66
2019-04-19T11:25:52.268Z,1023.50
2019-04-19T11:26:52.877Z,1023.51
2019-04-19T11:27:53.391Z,1023.45
2019-04-19T11:28:51.859Z,1023.42
2019-04-19T11:29:52.286Z,1023.52
2019-04-19T11:30:52.982Z,1023.41
2019-04-19T11:31:52.077Z,1023.35
2019-04-19T11:32:52.716Z,1023.30
2019-04-19T11:33:53.087Z,1023.28
2019-04-19T11:34:51.924Z,1023.33
2019-04-19T11:35:53.090Z,1023.31
2019-04-19T11:36:51.939Z,1023.28
2019-04-19T11:37:53.037Z,1023.22
2019-04-19T11:38:51.948Z,1023.28
2019-04-19T11:39:53.020Z,1023.18
2019-04-19T11:40:53.193Z,1023.21
2019-04-19T11:41:51.975Z,1023.24
2019-04-19T11:42:53.093Z,1023.14
2019-04-19T11:43:51.980Z,1023.15
2019-04-19T11:44:52.105Z,1023.19
2019-04-19T11:45:51.996Z,1023.17
2019-04-19T11:46:52.124Z,1023.17
2019-04-19T11:47:53.290Z,1023.11
2019-04-19T11:48:52.144Z,1023.19
2019-04-19T11:49:52.027Z,1023.21
2019-04-19T11:50:52.022Z,1023.19
2019-04-19T11:51:53.166Z,1023.19
2019-04-19T11:52:52.027Z,1023.11
2019-04-19T11:53:52.473Z,1023.02
2019-04-19T11:54:52.549Z,1023.07
2019-04-19T11:55:52.045Z,1023.04
2019-04-19T11:56:58.254Z,1023.04
2019-04-19T11:57:52.490Z,1023.09
2019-04-19T11:58:52.903Z,1023.00
2019-04-19T11:59:54.580Z,1023.10
2019-04-19T12:00:52.070Z,1023.09
2019-04-19T12:01:52.218Z,1023.02
2019-04-19T12:02:52.073Z,1023.00
2019-04-19T12:03:52.175Z,1022.95
2019-04-19T12:04:52.465Z,1022.95
2019-04-19T12:05:52.085Z,1022.95
2019-04-19T12:06:52.363Z,1022.99
2019-04-19T12:07:52.602Z,1023.04
2019-04-19T12:08:52.097Z,1023.02
2019-04-19T12:09:52.375Z,1022.97
2019-04-19T12:10:52.466Z,1022.99
2019-04-19T12:11:52.101Z,1023.03
2019-04-19T12:12:53.080Z,1023.01
2019-04-19T12:13:52.354Z,1022.96
2019-04-19T12:14:53.309Z,1022.98
2019-04-19T12:15:52.774Z,1023.01
2019-04-19T12:16:53.105Z,1022.94
2019-04-19T12:17:52.420Z,1023.09
2019-04-19T12:18:52.131Z,1023.04
2019-04-19T12:19:57.150Z,1023.00
2019-04-19T12:20:53.288Z,1023.01
2019-04-19T12:21:53.872Z,1023.04
2019-04-19T12:22:52.147Z,1023.07
2019-04-19T12:23:52.968Z,1023.00
2019-04-19T12:24:54.913Z,1022.93
2019-04-19T12:25:53.401Z,1022.92
2019-04-19T12:26:53.555Z,1022.88
2019-04-19T12:27:52.155Z,1022.93
2019-04-19T12:28:53.421Z,1022.96
2019-04-19T12:29:54.014Z,1023.00
2019-04-19T12:30:55.552Z,1023.05
2019-04-19T12:31:54.295Z,1022.93
2019-04-19T12:32:53.094Z,1022.96
2019-04-19T12:33:53.319Z,1022.98
2019-04-19T12:34:52.966Z,1023.03
2019-04-19T12:35:53.051Z,1022.96
2019-04-19T12:36:53.095Z,1022.96
2019-04-19T12:37:53.284Z,1022.87
2019-04-19T12:38:52.187Z,1022.89
2019-04-19T12:39:52.862Z,1022.91
2019-04-19T12:40:52.195Z,1022.89